Skip Navigation Links Skip Navigation Links

Current Weather

Morristown Muni, Morristown, N.J.

For information only: do not use for flight planning or navigation.
Latest weather
Observation time Friday, May 29, 2020 2:45 PM EDT
Local time Friday, May 29, 2020 6:15 PM EDT
Flight conditions Visual Meteorological Conditions
Winds
Wind direction South-Southwest (210°)
Wind speed 14 mph
Wind gusting to 22 mph
Visibility 10 mi.
Sky condition
Ceiling 6,000 ft. broken clouds
Cloud layer scattered clouds 2,900 ft.
Cloud layer scattered clouds 3,600 ft.
Cloud layer broken clouds 6,000 ft.
Temperature 82°F
Dewpoint 73°F
Altimeter 29.93 in.Hg
Derived measurements
Relative humidity 74%
Heat index 88°F
Density altitude 2050 ft.
METAR KMMU 291845Z 21012G19KT 10SM SCT029 SCT036 BKN060 28/23 A2993

Settings

Location code

InnerDrive.Weather 4.0.6770.0 Release CLR 4.0.30319.42000
Copyright ©2018 Inner Drive Technology. All rights reserved. Portions Copyright ©1986-2018 David Braverman.

Find weather

Site navigation


Skip Navigation Links

Place info

Page info

PayPal - The safer, easier way to pay online!

Return home.

Copyright ©2020 Inner Drive Technology. Purveyors of fine, hand-crafted computer software. Page printed 2020-05-29T22:15:28 UTC.